createdAt,value
2019-05-10T00:00:32.633Z,0.00
2019-05-10T00:01:32.628Z,0.00
2019-05-10T00:02:32.618Z,0.00
2019-05-10T00:03:32.622Z,0.00
2019-05-10T00:04:32.597Z,0.00
2019-05-10T00:05:32.606Z,0.00
2019-05-10T00:06:32.592Z,0.00
2019-05-10T00:07:32.581Z,0.00
2019-05-10T00:08:32.580Z,0.00
2019-05-10T00:09:32.572Z,0.00
2019-05-10T00:10:32.565Z,0.00
2019-05-10T00:11:32.579Z,0.00
2019-05-10T00:12:32.558Z,0.00
2019-05-10T00:13:32.541Z,0.00
2019-05-10T00:14:32.549Z,0.00
2019-05-10T00:15:32.530Z,0.00
2019-05-10T00:16:32.525Z,0.00
2019-05-10T00:17:32.515Z,0.00
2019-05-10T00:18:32.508Z,0.00
2019-05-10T00:19:32.506Z,0.00
2019-05-10T00:20:32.505Z,0.00
2019-05-10T00:21:32.488Z,0.00
2019-05-10T00:22:32.510Z,0.00
2019-05-10T00:23:32.475Z,0.00
2019-05-10T00:24:32.471Z,0.00
2019-05-10T00:25:32.463Z,0.00
2019-05-10T00:26:32.469Z,0.00
2019-05-10T00:27:32.465Z,0.00
2019-05-10T00:28:32.447Z,0.00
2019-05-10T00:29:32.449Z,0.00
2019-05-10T00:30:32.434Z,0.00
2019-05-10T00:31:32.418Z,0.00
2019-05-10T00:32:32.416Z,0.00
2019-05-10T00:33:32.409Z,0.00
2019-05-10T00:34:32.405Z,0.00
2019-05-10T00:35:32.404Z,0.00
2019-05-10T00:36:32.400Z,0.00
2019-05-10T00:37:32.377Z,0.00
2019-05-10T00:38:32.450Z,0.00
2019-05-10T00:39:32.373Z,0.00
2019-05-10T00:40:32.363Z,0.00
2019-05-10T00:41:32.355Z,0.00
2019-05-10T00:42:32.366Z,0.00
2019-05-10T00:43:32.349Z,0.00
2019-05-10T00:44:32.332Z,0.00
2019-05-10T00:45:32.336Z,0.00
2019-05-10T00:46:32.342Z,0.00
2019-05-10T00:47:32.321Z,0.00
2019-05-10T00:48:32.310Z,0.00
2019-05-10T00:49:32.324Z,0.00
2019-05-10T00:50:32.309Z,0.00
2019-05-10T00:51:32.284Z,0.00
2019-05-10T00:52:32.289Z,0.00
2019-05-10T00:53:32.297Z,0.00
2019-05-10T00:54:32.269Z,0.00
2019-05-10T00:55:32.271Z,0.00
2019-05-10T00:56:32.317Z,0.00
2019-05-10T00:57:32.248Z,0.00
2019-05-10T00:58:32.245Z,0.00
2019-05-10T00:59:32.238Z,0.00
2019-05-10T01:00:32.236Z,0.00
2019-05-10T01:01:32.233Z,0.00
2019-05-10T01:02:32.213Z,0.00
2019-05-10T01:03:32.215Z,0.00
2019-05-10T01:04:32.215Z,0.00
2019-05-10T01:05:32.202Z,0.00
2019-05-10T01:06:32.194Z,0.00
2019-05-10T01:07:32.191Z,0.00
2019-05-10T01:08:32.176Z,0.00
2019-05-10T01:09:32.171Z,0.00
2019-05-10T01:10:32.162Z,0.00
2019-05-10T01:11:32.161Z,0.00
2019-05-10T01:12:32.156Z,0.00
2019-05-10T01:13:32.154Z,0.00
2019-05-10T01:14:32.135Z,0.00
2019-05-10T01:15:32.141Z,0.00
2019-05-10T01:16:32.123Z,0.00
2019-05-10T01:17:32.112Z,0.00
2019-05-10T01:18:32.113Z,0.00
2019-05-10T01:19:32.120Z,0.00
2019-05-10T01:20:32.089Z,0.00
2019-05-10T01:21:32.110Z,0.00
2019-05-10T01:22:32.087Z,0.00
2019-05-10T01:23:32.081Z,0.00
2019-05-10T01:24:32.069Z,0.00
2019-05-10T01:25:35.306Z,0.00
2019-05-10T01:26:32.056Z,0.00
2019-05-10T01:27:32.059Z,0.00
2019-05-10T01:28:32.034Z,0.00
2019-05-10T01:29:32.112Z,0.00
2019-05-10T01:30:32.022Z,0.00
2019-05-10T01:31:32.018Z,0.00
2019-05-10T01:32:32.020Z,0.00
2019-05-10T01:33:32.023Z,0.00
2019-05-10T01:34:32.007Z,0.00
2019-05-10T01:35:31.995Z,0.00
2019-05-10T01:36:31.985Z,0.00
2019-05-10T01:37:31.984Z,0.00
2019-05-10T01:38:31.974Z,0.00
2019-05-10T01:39:31.966Z,0.00
2019-05-10T01:40:31.962Z,0.00
2019-05-10T01:41:31.958Z,0.00
2019-05-10T01:42:31.945Z,0.00
2019-05-10T01:43:31.935Z,0.00
2019-05-10T01:44:31.964Z,0.00
2019-05-10T01:45:31.929Z,0.00
2019-05-10T01:46:31.922Z,0.00
2019-05-10T01:47:31.916Z,0.00
2019-05-10T01:48:31.899Z,0.00
2019-05-10T01:49:31.908Z,0.00
2019-05-10T01:50:31.894Z,0.00
2019-05-10T01:51:31.894Z,0.00
2019-05-10T01:52:31.941Z,0.00
2019-05-10T01:53:31.877Z,0.00
2019-05-10T01:54:31.868Z,0.00
2019-05-10T01:55:31.864Z,0.00
2019-05-10T01:56:31.853Z,0.00
2019-05-10T01:57:31.852Z,0.00
2019-05-10T01:58:31.848Z,0.00
2019-05-10T01:59:31.833Z,0.00
2019-05-10T02:00:31.818Z,0.00
2019-05-10T02:01:31.810Z,0.00
2019-05-10T02:02:31.812Z,0.00
2019-05-10T02:03:31.803Z,0.00
2019-05-10T02:04:31.797Z,0.00
2019-05-10T02:05:31.797Z,0.00
2019-05-10T02:06:31.779Z,0.00
2019-05-10T02:07:31.774Z,0.00
2019-05-10T02:08:31.784Z,0.00
2019-05-10T02:09:33.466Z,0.00
2019-05-10T02:10:31.762Z,0.00
2019-05-10T02:11:31.764Z,0.00
2019-05-10T02:12:31.748Z,0.00
2019-05-10T02:13:31.748Z,0.00
2019-05-10T02:14:31.729Z,0.00
2019-05-10T02:15:31.717Z,0.00
2019-05-10T02:16:31.717Z,0.00
2019-05-10T02:17:31.723Z,0.00
2019-05-10T02:18:31.704Z,0.00
2019-05-10T02:19:31.706Z,0.00
2019-05-10T02:20:31.686Z,0.00
2019-05-10T02:21:31.699Z,0.00
2019-05-10T02:22:31.681Z,0.00
2019-05-10T02:23:31.687Z,0.00
2019-05-10T02:24:31.670Z,0.00
2019-05-10T02:25:31.649Z,0.00
2019-05-10T02:26:31.648Z,0.00
2019-05-10T02:27:31.637Z,0.00
2019-05-10T02:28:31.641Z,0.00
2019-05-10T02:29:31.638Z,0.00
2019-05-10T02:30:31.630Z,0.00
2019-05-10T02:31:31.634Z,0.00
2019-05-10T02:32:31.612Z,0.00
2019-05-10T02:33:31.603Z,0.00
2019-05-10T02:34:31.599Z,0.00
2019-05-10T02:35:31.588Z,0.00
2019-05-10T02:36:31.591Z,0.00
2019-05-10T02:37:31.584Z,0.00
2019-05-10T02:38:31.603Z,0.00
2019-05-10T02:39:31.571Z,0.00
2019-05-10T02:40:31.556Z,0.00
2019-05-10T02:41:31.572Z,0.00
2019-05-10T02:42:31.566Z,0.00
2019-05-10T02:43:31.540Z,0.00
2019-05-10T02:44:31.527Z,0.00
2019-05-10T02:45:31.515Z,0.00
2019-05-10T02:46:31.514Z,0.00
2019-05-10T02:47:31.507Z,0.00
2019-05-10T02:48:31.506Z,0.00
2019-05-10T02:49:31.506Z,0.00
2019-05-10T02:50:31.501Z,0.00
2019-05-10T02:51:31.485Z,0.00
2019-05-10T02:52:31.479Z,0.00
2019-05-10T02:53:31.462Z,0.00
2019-05-10T02:54:31.461Z,0.00
2019-05-10T02:55:31.456Z,0.00
2019-05-10T02:56:31.807Z,0.00
2019-05-10T02:57:31.470Z,0.00
2019-05-10T02:58:31.430Z,0.00
2019-05-10T02:59:31.423Z,0.00
2019-05-10T03:00:31.424Z,0.00
2019-05-10T03:01:31.414Z,0.00
2019-05-10T03:02:31.408Z,0.00
2019-05-10T03:03:31.402Z,0.00
2019-05-10T03:04:31.414Z,0.00
2019-05-10T03:05:31.390Z,0.00
2019-05-10T03:06:31.381Z,0.00
2019-05-10T03:07:31.372Z,0.00
2019-05-10T03:08:31.365Z,0.00
2019-05-10T03:09:31.359Z,0.00
2019-05-10T03:10:31.361Z,4.00
2019-05-10T03:11:31.347Z,4.00
2019-05-10T03:12:31.334Z,4.00
2019-05-10T03:13:31.337Z,4.00
2019-05-10T03:14:31.363Z,4.00
2019-05-10T03:15:31.312Z,4.00
2019-05-10T03:16:31.315Z,4.00
2019-05-10T03:17:31.307Z,4.00
2019-05-10T03:18:31.307Z,4.00
2019-05-10T03:19:31.302Z,4.00
2019-05-10T03:20:31.301Z,8.00
2019-05-10T03:21:31.337Z,4.00
2019-05-10T03:22:31.267Z,8.00
2019-05-10T03:23:31.293Z,8.00
2019-05-10T03:24:31.258Z,8.00
2019-05-10T03:25:31.256Z,8.00
2019-05-10T03:26:49.736Z,12.00
2019-05-10T03:27:31.251Z,12.00
2019-05-10T03:28:31.239Z,16.00
2019-05-10T03:29:31.223Z,16.00
2019-05-10T03:30:31.218Z,16.00
2019-05-10T03:31:31.210Z,16.00
2019-05-10T03:32:31.203Z,20.00
2019-05-10T03:33:31.202Z,20.00
2019-05-10T03:34:31.196Z,20.00
2019-05-10T03:35:31.231Z,20.00
2019-05-10T03:36:31.179Z,24.00
2019-05-10T03:37:31.179Z,24.00
2019-05-10T03:38:31.167Z,24.00
2019-05-10T03:39:31.166Z,24.00
2019-05-10T03:40:31.169Z,24.00
2019-05-10T03:41:31.148Z,28.00
2019-05-10T03:42:31.144Z,28.00
2019-05-10T03:43:31.129Z,28.00
2019-05-10T03:44:31.124Z,32.00
2019-05-10T03:45:31.146Z,36.00
2019-05-10T03:46:31.119Z,32.00
2019-05-10T03:47:31.097Z,36.00
2019-05-10T03:48:31.099Z,36.00
2019-05-10T03:49:31.106Z,40.00
2019-05-10T03:50:31.098Z,40.00
2019-05-10T03:51:31.077Z,40.00
2019-05-10T03:52:31.079Z,40.00
2019-05-10T03:53:31.063Z,44.00
2019-05-10T03:54:31.160Z,48.00
2019-05-10T03:55:31.042Z,48.00
2019-05-10T03:56:31.047Z,52.00
2019-05-10T03:57:31.038Z,52.00
2019-05-10T03:58:31.026Z,56.00
2019-05-10T03:59:31.020Z,60.00
2019-05-10T04:00:31.016Z,64.00
2019-05-10T04:01:31.013Z,64.00
2019-05-10T04:02:31.016Z,72.00
2019-05-10T04:03:31.007Z,68.00
2019-05-10T04:04:30.984Z,68.00
2019-05-10T04:05:30.973Z,72.00
2019-05-10T04:06:30.967Z,76.00
2019-05-10T04:07:30.960Z,76.00
2019-05-10T04:08:30.962Z,80.00
2019-05-10T04:09:30.993Z,80.00
2019-05-10T04:10:30.949Z,84.00
2019-05-10T04:11:30.937Z,92.00
2019-05-10T04:12:30.929Z,92.00
2019-05-10T04:13:30.932Z,92.00
2019-05-10T04:14:30.922Z,96.00
2019-05-10T04:15:30.914Z,100.00
2019-05-10T04:16:30.899Z,104.00
2019-05-10T04:17:30.894Z,104.00
2019-05-10T04:18:30.891Z,108.00
2019-05-10T04:19:30.880Z,112.00
2019-05-10T04:20:30.879Z,116.00
2019-05-10T04:21:30.875Z,120.00
2019-05-10T04:22:30.872Z,120.00
2019-05-10T04:23:30.861Z,120.00
2019-05-10T04:24:35.534Z,124.00
2019-05-10T04:25:30.843Z,124.00
2019-05-10T04:26:30.841Z,128.00
2019-05-10T04:27:32.965Z,128.00
2019-05-10T04:28:30.833Z,132.00
2019-05-10T04:29:30.829Z,132.00
2019-05-10T04:30:31.857Z,136.00
2019-05-10T04:31:30.807Z,144.00
2019-05-10T04:32:30.810Z,152.00
2019-05-10T04:33:30.797Z,160.00
2019-05-10T04:34:30.798Z,168.00
2019-05-10T04:35:30.787Z,176.00
2019-05-10T04:36:30.775Z,184.00
2019-05-10T04:37:30.772Z,192.00
2019-05-10T04:38:30.761Z,192.00
2019-05-10T04:39:30.764Z,196.00
2019-05-10T04:40:30.750Z,196.00
2019-05-10T04:41:30.751Z,196.00
2019-05-10T04:42:30.743Z,200.00
2019-05-10T04:43:30.741Z,204.00
2019-05-10T04:44:30.726Z,208.00
2019-05-10T04:45:30.718Z,212.00
2019-05-10T04:46:30.747Z,208.00
2019-05-10T04:47:30.743Z,216.00
2019-05-10T04:48:30.708Z,216.00
2019-05-10T04:49:30.734Z,220.00
2019-05-10T04:50:30.685Z,220.00
2019-05-10T04:51:30.681Z,224.00
2019-05-10T04:52:30.700Z,228.00
2019-05-10T04:53:30.674Z,232.00
2019-05-10T04:54:30.687Z,232.00
2019-05-10T04:55:30.662Z,236.00
2019-05-10T04:56:30.669Z,244.00
2019-05-10T04:57:47.934Z,248.00
2019-05-10T04:58:30.653Z,256.00
2019-05-10T04:59:30.713Z,268.00
2019-05-10T05:00:30.755Z,284.00
2019-05-10T05:01:30.626Z,292.00
2019-05-10T05:02:30.627Z,308.00
2019-05-10T05:03:30.610Z,320.00
2019-05-10T05:04:30.611Z,328.00
2019-05-10T05:05:30.600Z,332.00
2019-05-10T05:06:30.591Z,332.00
2019-05-10T05:07:30.587Z,336.00
2019-05-10T05:08:30.590Z,344.00
2019-05-10T05:09:30.572Z,348.00
2019-05-10T05:10:30.585Z,356.00
2019-05-10T05:11:30.565Z,360.00
2019-05-10T05:12:30.566Z,372.00
2019-05-10T05:13:30.563Z,380.00
2019-05-10T05:14:30.547Z,384.00
2019-05-10T05:15:30.532Z,388.00
2019-05-10T05:16:30.557Z,392.00
2019-05-10T05:17:30.528Z,396.00
2019-05-10T05:18:30.537Z,408.00
2019-05-10T05:19:30.519Z,416.00
2019-05-10T05:20:30.496Z,420.00
2019-05-10T05:21:30.498Z,432.00
2019-05-10T05:22:30.483Z,444.00
2019-05-10T05:23:30.480Z,472.00
2019-05-10T05:24:30.487Z,520.00
2019-05-10T05:25:35.241Z,556.00
2019-05-10T05:26:30.467Z,568.00
2019-05-10T05:27:30.469Z,568.00
2019-05-10T05:28:30.451Z,568.00
2019-05-10T05:29:30.440Z,576.00
2019-05-10T05:30:30.435Z,584.00
2019-05-10T05:31:30.431Z,596.00
2019-05-10T05:32:30.425Z,612.00
2019-05-10T05:33:30.428Z,648.00
2019-05-10T05:34:30.420Z,676.00
2019-05-10T05:35:30.406Z,684.00
2019-05-10T05:36:30.400Z,696.00
2019-05-10T05:37:30.395Z,708.00
2019-05-10T05:38:30.397Z,732.00
2019-05-10T05:39:30.385Z,760.00
2019-05-10T05:40:30.371Z,784.00
2019-05-10T05:41:31.994Z,800.00
2019-05-10T05:42:30.363Z,816.00
2019-05-10T05:43:30.354Z,812.00
2019-05-10T05:44:30.355Z,784.00
2019-05-10T05:45:33.953Z,748.00
2019-05-10T05:46:30.349Z,732.00
2019-05-10T05:47:30.336Z,728.00
2019-05-10T05:48:39.958Z,696.00
2019-05-10T05:49:30.337Z,660.00
2019-05-10T05:50:30.412Z,628.00
2019-05-10T05:51:30.315Z,628.00
2019-05-10T05:52:30.629Z,628.00
2019-05-10T05:53:35.346Z,624.00
2019-05-10T05:54:30.360Z,604.00
2019-05-10T05:55:31.997Z,584.00
2019-05-10T05:56:30.354Z,572.00
2019-05-10T05:57:30.273Z,564.00
2019-05-10T05:58:30.333Z,556.00
2019-05-10T05:59:30.266Z,536.00
2019-05-10T06:00:30.310Z,496.00
2019-05-10T06:01:30.242Z,472.00
2019-05-10T06:02:30.290Z,460.00
2019-05-10T06:03:30.228Z,464.00
2019-05-10T06:04:30.302Z,472.00
2019-05-10T06:05:36.776Z,476.00
2019-05-10T06:06:30.268Z,484.00
2019-05-10T06:07:31.126Z,504.00
2019-05-10T06:08:30.425Z,500.00
2019-05-10T06:09:31.919Z,504.00
2019-05-10T06:10:30.229Z,516.00
2019-05-10T06:11:35.846Z,540.00
2019-05-10T06:12:30.207Z,568.00
2019-05-10T06:13:32.236Z,588.00
2019-05-10T06:14:30.186Z,600.00
2019-05-10T06:15:31.551Z,624.00
2019-05-10T06:16:30.184Z,640.00
2019-05-10T06:17:31.740Z,644.00
2019-05-10T06:18:30.161Z,648.00
2019-05-10T06:19:30.762Z,664.00
2019-05-10T06:20:30.136Z,656.00
2019-05-10T06:21:30.135Z,656.00
2019-05-10T06:22:30.136Z,668.00
2019-05-10T06:23:35.330Z,668.00
2019-05-10T06:24:30.100Z,664.00
2019-05-10T06:25:39.300Z,672.00
2019-05-10T06:26:30.097Z,688.00
2019-05-10T06:27:30.085Z,700.00
2019-05-10T06:28:56.915Z,724.00
2019-05-10T06:29:30.078Z,760.00
2019-05-10T06:30:30.078Z,804.00
2019-05-10T06:31:30.074Z,840.00
2019-05-10T06:32:30.055Z,848.00
2019-05-10T06:33:30.057Z,856.00
2019-05-10T06:34:31.919Z,860.00
2019-05-10T06:35:30.845Z,872.00
2019-05-10T06:36:30.062Z,868.00
2019-05-10T06:37:31.493Z,856.00
2019-05-10T06:38:30.059Z,880.00
2019-05-10T06:39:30.027Z,892.00
2019-05-10T06:40:34.799Z,900.00
2019-05-10T06:41:32.523Z,856.00
2019-05-10T06:42:34.550Z,812.00
2019-05-10T06:43:30.000Z,768.00
2019-05-10T06:44:31.257Z,724.00
2019-05-10T06:45:30.000Z,704.00
2019-05-10T06:46:31.197Z,724.00
2019-05-10T06:47:29.971Z,748.00
2019-05-10T06:48:33.584Z,768.00
2019-05-10T06:49:29.968Z,776.00
2019-05-10T06:50:31.949Z,788.00
2019-05-10T06:51:29.958Z,840.00
2019-05-10T06:52:30.057Z,896.00
2019-05-10T06:53:29.933Z,892.00
2019-05-10T06:54:29.937Z,900.00
2019-05-10T06:55:29.927Z,904.00
2019-05-10T06:56:29.915Z,908.00
2019-05-10T06:57:29.911Z,900.00
2019-05-10T06:58:30.464Z,872.00
2019-05-10T06:59:29.898Z,840.00
2019-05-10T07:00:29.895Z,868.00
2019-05-10T07:01:29.890Z,916.00
2019-05-10T07:02:32.451Z,952.00
2019-05-10T07:03:29.874Z,940.00
2019-05-10T07:04:35.028Z,912.00
2019-05-10T07:05:29.860Z,904.00
2019-05-10T07:06:29.852Z,904.00
2019-05-10T07:07:43.156Z,880.00
2019-05-10T07:08:43.336Z,848.00
2019-05-10T07:09:29.838Z,808.00
2019-05-10T07:10:33.639Z,768.00
2019-05-10T07:11:29.823Z,716.00
2019-05-10T07:12:30.372Z,700.00
2019-05-10T07:13:29.812Z,736.00
2019-05-10T07:14:29.809Z,804.00
2019-05-10T07:15:29.803Z,880.00
2019-05-10T07:16:29.795Z,936.00
2019-05-10T07:17:29.783Z,964.00
2019-05-10T07:18:29.780Z,960.00
2019-05-10T07:19:34.962Z,928.00
2019-05-10T07:20:30.958Z,892.00
2019-05-10T07:21:29.764Z,840.00
2019-05-10T07:22:29.765Z,860.00
2019-05-10T07:23:30.320Z,892.00
2019-05-10T07:24:29.743Z,896.00
2019-05-10T07:25:29.746Z,884.00
2019-05-10T07:26:29.745Z,876.00
2019-05-10T07:27:29.728Z,864.00
2019-05-10T07:28:29.721Z,856.00
2019-05-10T07:29:30.587Z,860.00
2019-05-10T07:30:29.707Z,876.00
2019-05-10T07:31:29.701Z,888.00
2019-05-10T07:32:29.710Z,900.00
2019-05-10T07:33:32.209Z,892.00
2019-05-10T07:34:29.692Z,884.00
2019-05-10T07:35:31.059Z,896.00
2019-05-10T07:36:30.856Z,924.00
2019-05-10T07:37:29.666Z,988.00
2019-05-10T07:38:30.979Z,1060.00
2019-05-10T07:39:29.653Z,1096.00
2019-05-10T07:40:29.662Z,1104.00
2019-05-10T07:41:29.648Z,1076.00
2019-05-10T07:42:29.637Z,1048.00
2019-05-10T07:43:29.632Z,1032.00
2019-05-10T07:44:29.631Z,1056.00
2019-05-10T07:45:29.623Z,1064.00
2019-05-10T07:46:29.620Z,1084.00
2019-05-10T07:47:30.415Z,1124.00
2019-05-10T07:48:29.605Z,1180.00
2019-05-10T07:49:32.283Z,1148.00
2019-05-10T07:50:29.594Z,1064.00
2019-05-10T07:51:30.375Z,984.00
2019-05-10T07:52:29.588Z,1024.00
2019-05-10T07:53:29.587Z,956.00
2019-05-10T07:54:29.575Z,932.00
2019-05-10T07:55:30.115Z,936.00
2019-05-10T07:56:29.575Z,952.00
2019-05-10T07:57:29.566Z,960.00
2019-05-10T07:58:29.557Z,964.00
2019-05-10T07:59:33.826Z,1004.00
2019-05-10T08:00:29.541Z,1060.00
2019-05-10T08:01:32.787Z,1124.00
2019-05-10T08:02:29.533Z,1140.00
2019-05-10T08:03:29.893Z,1132.00
2019-05-10T08:04:33.559Z,1128.00
2019-05-10T08:05:29.763Z,1136.00
2019-05-10T08:06:33.986Z,1108.00
2019-05-10T08:07:29.574Z,1040.00
2019-05-10T08:08:29.718Z,1000.00
2019-05-10T08:09:31.648Z,988.00
2019-05-10T08:10:29.485Z,956.00
2019-05-10T08:11:29.477Z,984.00
2019-05-10T08:12:29.488Z,1100.00
2019-05-10T08:13:29.482Z,1208.00
2019-05-10T08:14:29.471Z,1044.00
2019-05-10T08:15:33.245Z,1080.00
2019-05-10T08:16:29.501Z,1036.00
2019-05-10T08:17:29.467Z,1068.00
2019-05-10T08:18:29.462Z,1264.00
2019-05-10T08:19:32.689Z,1296.00
2019-05-10T08:20:45.727Z,1260.00
2019-05-10T08:21:32.016Z,1312.00
2019-05-10T08:22:32.865Z,1368.00
2019-05-10T08:23:29.412Z,1424.00
2019-05-10T08:24:29.408Z,1480.00
2019-05-10T08:25:35.405Z,1456.00
2019-05-10T08:26:29.415Z,1384.00
2019-05-10T08:27:29.404Z,1404.00
2019-05-10T08:28:34.227Z,1432.00
2019-05-10T08:29:29.375Z,1456.00
2019-05-10T08:30:29.452Z,1412.00
2019-05-10T08:31:33.763Z,1456.00
2019-05-10T08:32:32.215Z,1548.00
2019-05-10T08:33:29.354Z,1328.00
2019-05-10T08:34:35.656Z,1168.00
2019-05-10T08:35:29.341Z,1108.00
2019-05-10T08:36:29.343Z,1060.00
2019-05-10T08:37:35.983Z,1028.00
2019-05-10T08:38:31.791Z,1012.00
2019-05-10T08:39:34.761Z,1048.00
2019-05-10T08:40:35.125Z,1132.00
2019-05-10T08:41:29.309Z,1140.00
2019-05-10T08:42:40.942Z,1228.00
2019-05-10T08:43:30.841Z,1272.00
2019-05-10T08:44:29.300Z,1248.00
2019-05-10T08:45:29.308Z,1192.00
2019-05-10T08:46:38.294Z,1120.00
2019-05-10T08:47:29.284Z,1100.00
2019-05-10T08:48:29.277Z,1012.00
2019-05-10T08:49:39.424Z,980.00
2019-05-10T08:50:48.771Z,920.00
2019-05-10T08:51:29.261Z,880.00
2019-05-10T08:52:31.753Z,804.00
2019-05-10T08:53:29.246Z,732.00
2019-05-10T08:54:29.241Z,748.00
2019-05-10T08:55:29.236Z,864.00
2019-05-10T08:56:29.237Z,1040.00
2019-05-10T08:57:29.232Z,1012.00
2019-05-10T08:58:36.879Z,1060.00
2019-05-10T08:59:30.927Z,912.00
2019-05-10T09:00:48.970Z,852.00
2019-05-10T09:01:30.642Z,1000.00
2019-05-10T09:02:30.281Z,972.00
2019-05-10T09:03:29.206Z,880.00
2019-05-10T09:04:33.508Z,852.00
2019-05-10T09:05:31.463Z,888.00
2019-05-10T09:06:29.188Z,904.00
2019-05-10T09:07:29.350Z,920.00
2019-05-10T09:08:31.702Z,956.00
2019-05-10T09:09:33.785Z,1016.00
2019-05-10T09:10:29.164Z,1024.00
2019-05-10T09:11:29.157Z,1060.00
2019-05-10T09:12:29.707Z,1064.00
2019-05-10T09:13:37.204Z,1100.00
2019-05-10T09:14:29.137Z,1032.00
2019-05-10T09:15:29.137Z,952.00
2019-05-10T09:16:34.883Z,924.00
2019-05-10T09:17:29.202Z,900.00
2019-05-10T09:18:29.119Z,908.00
2019-05-10T09:19:37.214Z,936.00
2019-05-10T09:20:29.151Z,936.00
2019-05-10T09:21:29.145Z,960.00
2019-05-10T09:22:33.520Z,1008.00
2019-05-10T09:23:29.133Z,1000.00
2019-05-10T09:24:29.085Z,1024.00
2019-05-10T09:25:30.984Z,1048.00
2019-05-10T09:26:29.075Z,1060.00
2019-05-10T09:27:29.505Z,1056.00
2019-05-10T09:28:29.078Z,980.00
2019-05-10T09:29:35.246Z,968.00
2019-05-10T09:30:29.064Z,996.00
2019-05-10T09:31:29.062Z,996.00
2019-05-10T09:32:30.481Z,1084.00
2019-05-10T09:33:29.056Z,1092.00
2019-05-10T09:34:29.044Z,1060.00
2019-05-10T09:35:29.032Z,1000.00
2019-05-10T09:36:30.900Z,896.00
2019-05-10T09:37:29.022Z,808.00
2019-05-10T09:38:37.139Z,748.00
2019-05-10T09:39:29.008Z,712.00
2019-05-10T09:40:29.048Z,764.00
2019-05-10T09:41:35.986Z,844.00
2019-05-10T09:42:34.749Z,916.00
2019-05-10T09:43:28.992Z,1020.00
2019-05-10T09:44:28.991Z,1120.00
2019-05-10T09:45:28.977Z,1216.00
2019-05-10T09:46:28.999Z,1328.00
2019-05-10T09:47:28.967Z,1448.00
2019-05-10T09:48:28.976Z,1488.00
2019-05-10T09:49:28.966Z,1444.00
2019-05-10T09:50:30.459Z,1428.00
2019-05-10T09:51:30.946Z,1376.00
2019-05-10T09:52:28.948Z,1248.00
2019-05-10T09:53:30.518Z,880.00
2019-05-10T09:54:33.351Z,860.00
2019-05-10T09:55:28.931Z,936.00
2019-05-10T09:56:32.838Z,920.00
2019-05-10T09:57:32.007Z,992.00
2019-05-10T09:58:28.914Z,1116.00
2019-05-10T09:59:28.912Z,968.00
2019-05-10T10:00:30.311Z,964.00
2019-05-10T10:01:28.897Z,1004.00
2019-05-10T10:02:33.668Z,808.00
2019-05-10T10:03:30.085Z,564.00
2019-05-10T10:04:28.876Z,476.00
2019-05-10T10:05:28.878Z,508.00
2019-05-10T10:06:29.758Z,612.00
2019-05-10T10:07:33.284Z,820.00
2019-05-10T10:08:28.868Z,972.00
2019-05-10T10:09:33.814Z,948.00
2019-05-10T10:10:31.867Z,968.00
2019-05-10T10:11:28.842Z,992.00
2019-05-10T10:12:29.047Z,1020.00
2019-05-10T10:13:39.484Z,1028.00
2019-05-10T10:14:37.765Z,1048.00
2019-05-10T10:15:33.948Z,1000.00
2019-05-10T10:16:28.821Z,916.00
2019-05-10T10:17:30.796Z,900.00
2019-05-10T10:18:28.801Z,968.00
2019-05-10T10:19:28.800Z,1128.00
2019-05-10T10:20:30.015Z,1320.00
2019-05-10T10:21:35.056Z,1272.00
2019-05-10T10:22:28.782Z,1156.00
2019-05-10T10:23:30.708Z,1252.00
2019-05-10T10:24:28.786Z,1244.00
2019-05-10T10:25:30.065Z,996.00
2019-05-10T10:26:28.762Z,904.00
2019-05-10T10:27:34.511Z,964.00
2019-05-10T10:28:28.765Z,1148.00
2019-05-10T10:29:33.882Z,1012.00
2019-05-10T10:30:31.392Z,856.00
2019-05-10T10:31:33.130Z,728.00
2019-05-10T10:32:31.550Z,780.00
2019-05-10T10:33:29.222Z,832.00
2019-05-10T10:34:32.651Z,780.00
2019-05-10T10:35:29.869Z,736.00
2019-05-10T10:36:28.702Z,820.00
2019-05-10T10:37:31.297Z,952.00
2019-05-10T10:38:31.182Z,1044.00
2019-05-10T10:39:28.691Z,1092.00
2019-05-10T10:40:28.687Z,1096.00
2019-05-10T10:41:31.685Z,1096.00
2019-05-10T10:42:28.693Z,1128.00
2019-05-10T10:43:28.664Z,1212.00
2019-05-10T10:44:28.666Z,1244.00
2019-05-10T10:45:28.662Z,1292.00
2019-05-10T10:46:28.678Z,1380.00
2019-05-10T10:47:32.142Z,1448.00
2019-05-10T10:48:28.649Z,1440.00
2019-05-10T10:49:31.949Z,1416.00
2019-05-10T10:50:28.628Z,1424.00
2019-05-10T10:51:32.349Z,1448.00
2019-05-10T10:52:28.623Z,1524.00
2019-05-10T10:53:28.630Z,1560.00
2019-05-10T10:54:36.271Z,1516.00
2019-05-10T10:55:32.453Z,1456.00
2019-05-10T10:56:28.603Z,1404.00
2019-05-10T10:57:28.604Z,1396.00
2019-05-10T10:58:28.593Z,1416.00
2019-05-10T10:59:28.587Z,1400.00
2019-05-10T11:00:28.575Z,1416.00
2019-05-10T11:01:45.654Z,1384.00
2019-05-10T11:02:33.420Z,1268.00
2019-05-10T11:03:30.312Z,1176.00
2019-05-10T11:04:28.567Z,1156.00
2019-05-10T11:05:28.556Z,1144.00
2019-05-10T11:06:28.551Z,1148.00
2019-05-10T11:07:30.355Z,1200.00
2019-05-10T11:08:28.540Z,1272.00
2019-05-10T11:09:31.014Z,1368.00
2019-05-10T11:10:31.020Z,1412.00
2019-05-10T11:11:30.713Z,1424.00
2019-05-10T11:12:30.637Z,1432.00
2019-05-10T11:13:41.526Z,1480.00
2019-05-10T11:14:32.042Z,1560.00
2019-05-10T11:15:35.351Z,1568.00
2019-05-10T11:16:28.496Z,1528.00
2019-05-10T11:17:30.683Z,1480.00
2019-05-10T11:18:28.488Z,1456.00
2019-05-10T11:19:28.488Z,1408.00
2019-05-10T11:20:28.472Z,1344.00
2019-05-10T11:21:30.588Z,1248.00
2019-05-10T11:22:28.463Z,1176.00
2019-05-10T11:23:37.338Z,1120.00
2019-05-10T11:24:30.717Z,1084.00
2019-05-10T11:25:28.452Z,1064.00
2019-05-10T11:26:34.945Z,1060.00
2019-05-10T11:27:30.811Z,1128.00
2019-05-10T11:28:32.037Z,1256.00
2019-05-10T11:29:30.664Z,1396.00
2019-05-10T11:30:28.429Z,1520.00
2019-05-10T11:31:31.021Z,1612.00
2019-05-10T11:32:28.418Z,1624.00
2019-05-10T11:33:30.824Z,1620.00
2019-05-10T11:34:29.378Z,1640.00
2019-05-10T11:35:33.710Z,1600.00
2019-05-10T11:36:28.391Z,1516.00
2019-05-10T11:37:32.927Z,1484.00
2019-05-10T11:38:28.382Z,1528.00
2019-05-10T11:39:33.297Z,1564.00
2019-05-10T11:40:32.629Z,1576.00
2019-05-10T11:41:28.372Z,1512.00
2019-05-10T11:42:30.842Z,1420.00
2019-05-10T11:43:28.359Z,1284.00
2019-05-10T11:44:28.363Z,1144.00
2019-05-10T11:45:34.287Z,1056.00
2019-05-10T11:46:30.889Z,1112.00
2019-05-10T11:47:31.067Z,1108.00
2019-05-10T11:48:36.293Z,1132.00
2019-05-10T11:49:30.625Z,1128.00
2019-05-10T11:50:34.368Z,1264.00
2019-05-10T11:51:28.324Z,1324.00
2019-05-10T11:52:29.187Z,1324.00
2019-05-10T11:53:31.060Z,1248.00
2019-05-10T11:54:28.326Z,1104.00
2019-05-10T11:55:28.304Z,1184.00
2019-05-10T11:56:28.294Z,1400.00
2019-05-10T11:57:28.294Z,1576.00
2019-05-10T11:58:30.481Z,1492.00
2019-05-10T11:59:33.905Z,1384.00
2019-05-10T12:00:31.941Z,1344.00
2019-05-10T12:01:28.281Z,1372.00
2019-05-10T12:03:28.262Z,1400.00
2019-05-10T12:04:36.227Z,1144.00
2019-05-10T12:05:28.258Z,1008.00
2019-05-10T12:06:28.252Z,984.00
2019-05-10T12:07:35.118Z,860.00
2019-05-10T12:08:28.239Z,700.00
2019-05-10T12:09:28.235Z,548.00
2019-05-10T12:10:28.235Z,444.00
2019-05-10T12:11:33.538Z,400.00
2019-05-10T12:12:44.980Z,288.00
2019-05-10T12:13:28.222Z,232.00
2019-05-10T12:14:28.212Z,264.00
2019-05-10T12:15:31.473Z,380.00
2019-05-10T12:16:28.206Z,508.00
2019-05-10T12:17:28.203Z,656.00
2019-05-10T12:18:28.216Z,840.00
2019-05-10T12:19:36.607Z,1040.00
2019-05-10T12:20:41.691Z,1240.00
2019-05-10T12:21:28.180Z,1292.00
2019-05-10T12:23:31.068Z,1236.00
2019-05-10T12:24:45.276Z,1296.00
2019-05-10T12:25:47.137Z,1372.00
2019-05-10T12:26:15.571Z,1272.00
2019-05-10T12:26:18.786Z,1468.00
2019-05-10T12:27:41.805Z,1212.00
2019-05-10T12:28:29.972Z,992.00
2019-05-10T12:29:28.139Z,872.00
2019-05-10T12:30:29.421Z,880.00
2019-05-10T12:31:28.133Z,936.00
2019-05-10T12:32:35.178Z,912.00
2019-05-10T12:33:28.121Z,868.00
2019-05-10T12:34:28.118Z,804.00
2019-05-10T12:35:35.548Z,788.00
2019-05-10T12:36:28.111Z,764.00
2019-05-10T12:37:30.698Z,740.00